Time;durP1;ratioP1;P1;durP2;ratioP2;P2;SDS_P1;SDS_P2;PMS_P1;PMS_P2;Temp;Humidity;BMP_temperature;BMP_pressure;BME280_temperature;BME280_humidity;BME280_pressure;Samples;Min_cycle;Max_cycle;Signal;HPM_P1;HPM_P2
2023/07/18 00:02:03;;;;;;;;;;;;;;;23.05;46.05;101534.34;4955446;28;5406;-64
2023/07/18 00:04:30;;;;;;;;;;;;;;;23.06;46.10;101532.22;4955459;28;4190;-64
2023/07/18 00:06:56;;;;;;;;;;;;;;;23.06;46.12;101537.97;4957037;28;4182;-64
2023/07/18 00:09:23;;;;;;;;;;;;;;;23.04;46.32;101532.84;4972881;28;4197;-65
2023/07/18 00:11:49;;;;;;;;;;;;;;;23.03;46.18;101540.03;4958430;28;4249;-64
2023/07/18 00:14:16;;;;;;;;;;;;;;;23.06;46.46;101540.88;4960057;28;4102;-65
2023/07/18 00:16:44;;;;;;;;;;;;;;;23.02;46.55;101544.34;4955826;28;3987;-64
2023/07/18 00:19:12;;;;;;;;;;;;;;;23.00;46.69;101542.09;4956714;28;4391;-64
2023/07/18 00:21:38;;;;;;;;;;;;;;;22.99;46.55;101534.81;4958836;28;4051;-64
2023/07/18 00:24:05;;;;;;;;;;;;;;;23.00;46.84;101547.88;4958349;28;4142;-64
2023/07/18 00:26:32;;;;;;;;;;;;;;;22.97;46.69;101543.34;4956738;28;4146;-64
2023/07/18 00:28:59;;;;;;;;;;;;;;;22.97;47.03;101545.50;4959318;28;4219;-64
2023/07/18 00:31:26;;;;;;;;;;;;;;;22.97;47.21;101549.13;4956103;28;4262;-65
2023/07/18 00:33:53;;;;;;;;;;;;;;;22.96;46.85;101546.91;4957773;28;4218;-64
2023/07/18 00:36:20;;;;;;;;;;;;;;;22.94;47.31;101553.31;4958766;28;4654;-65
2023/07/18 00:38:47;;;;;;;;;;;;;;;22.93;47.13;101548.19;4971415;28;4261;-64
2023/07/18 00:41:13;;;;;;;;;;;;;;;22.92;47.34;101559.00;4969353;28;4243;-64
2023/07/18 00:43:39;;;;;;;;;;;;;;;22.94;47.50;101556.22;4955046;28;4043;-64
2023/07/18 00:46:06;;;;;;;;;;;;;;;22.91;47.37;101551.75;4972630;28;4189;-64
2023/07/18 00:48:32;;;;;;;;;;;;;;;22.92;47.74;101559.00;4952429;28;4192;-64
2023/07/18 00:51:04;;;;;;;;;;;;;;;22.91;47.62;101559.66;4957772;28;4076;-64
2023/07/18 00:53:31;;;;;;;;;;;;;;;22.89;47.97;101554.53;4958291;28;4203;-64
2023/07/18 00:55:57;;;;;;;;;;;;;;;22.90;47.80;101549.50;4969992;28;4168;-64
2023/07/18 00:58:25;;;;;;;;;;;;;;;22.90;48.05;101547.34;4954838;28;4197;-64
2023/07/18 01:00:51;;;;;;;;;;;;;;;22.89;48.22;101548.03;4958209;28;4114;-64
2023/07/18 01:03:18;;;;;;;;;;;;;;;22.86;48.27;101550.06;4951484;28;4025;-65
2023/07/18 01:05:44;;;;;;;;;;;;;;;22.85;48.30;101551.44;4957731;28;5434;-64
2023/07/18 01:08:11;;;;;;;;;;;;;;;22.85;48.08;101548.56;4971759;28;4174;-64
2023/07/18 01:10:37;;;;;;;;;;;;;;;22.83;48.15;101547.72;4986339;28;4080;-65
2023/07/18 01:13:04;;;;;;;;;;;;;;;22.83;48.04;101544.84;4954186;28;4150;-66
2023/07/18 01:15:31;;;;;;;;;;;;;;;22.84;48.04;101549.22;4956810;28;4131;-64
2023/07/18 01:17:57;;;;;;;;;;;;;;;22.81;48.01;101545.47;4952915;28;4123;-64
2023/07/18 01:20:26;;;;;;;;;;;;;;;22.81;48.28;101548.38;4949553;28;4226;-65
2023/07/18 01:22:54;;;;;;;;;;;;;;;22.78;48.20;101543.91;4954591;28;4131;-64
2023/07/18 01:25:21;;;;;;;;;;;;;;;22.77;48.22;101542.44;4958894;28;4207;-65
2023/07/18 01:27:49;;;;;;;;;;;;;;;22.77;48.16;101548.19;4954601;28;4131;-64
2023/07/18 01:30:19;;;;;;;;;;;;;;;22.77;48.00;101548.94;4954062;28;4035;-64
2023/07/18 01:32:48;;;;;;;;;;;;;;;22.77;48.34;101548.19;4952116;28;4384;-64
2023/07/18 01:35:17;;;;;;;;;;;;;;;22.75;48.27;101545.94;4958593;28;3957;-71
2023/07/18 01:37:46;;;;;;;;;;;;;;;22.74;48.23;101549.47;4952896;28;4150;-73
2023/07/18 01:40:13;;;;;;;;;;;;;;;22.72;48.15;101553.03;4956879;28;4030;-71
2023/07/18 01:42:40;;;;;;;;;;;;;;;22.73;48.06;101548.00;4967353;28;4160;-71
2023/07/18 01:45:08;;;;;;;;;;;;;;;22.71;48.15;101553.69;4956092;28;4177;-71
2023/07/18 01:47:34;;;;;;;;;;;;;;;22.70;48.34;101550.03;4954885;28;4164;-72
2023/07/18 01:50:03;;;;;;;;;;;;;;;22.71;48.13;101550.78;4957413;28;4099;-72
2023/07/18 01:52:30;;;;;;;;;;;;;;;22.69;48.48;101553.56;4968281;28;5435;-71
2023/07/18 01:54:59;;;;;;;;;;;;;;;22.68;48.37;101554.97;4960247;28;4183;-72
2023/07/18 01:57:28;;;;;;;;;;;;;;;22.66;48.36;101549.09;4957186;28;4337;-71
2023/07/18 01:59:55;;;;;;;;;;;;;;;22.65;48.50;101553.38;4967766;28;4005;-72
2023/07/18 02:02:21;;;;;;;;;;;;;;;22.65;48.50;101553.38;4952590;28;4154;-71
2023/07/18 02:04:49;;;;;;;;;;;;;;;22.64;48.34;101549.00;4970210;28;4137;-71
2023/07/18 02:07:15;;;;;;;;;;;;;;;22.63;48.38;101548.28;4958515;28;4184;-71
2023/07/18 02:09:41;;;;;;;;;;;;;;;22.63;48.52;101568.47;4965123;28;4202;-71
2023/07/18 02:12:08;;;;;;;;;;;;;;;22.62;48.77;101566.97;4954601;28;4823;-71
2023/07/18 02:14:37;;;;;;;;;;;;;;;22.62;48.37;101566.97;4953364;28;4003;-71
2023/07/18 02:17:04;;;;;;;;;;;;;;;22.62;48.60;101572.00;4956530;28;4317;-71
2023/07/18 02:19:30;;;;;;;;;;;;;;;22.61;48.53;101576.28;4954550;28;4149;-71
2023/07/18 02:21:57;;;;;;;;;;;;;;;22.58;48.66;101567.50;4954788;28;4055;-71
2023/07/18 02:24:23;;;;;;;;;;;;;;;22.59;48.85;101571.91;4958293;28;5022;-71
2023/07/18 02:26:49;;;;;;;;;;;;;;;22.58;48.89;101581.94;4952062;28;4050;-71
2023/07/18 02:29:16;;;;;;;;;;;;;;;22.57;48.83;101583.34;4949868;28;4174;-71
2023/07/18 02:31:42;;;;;;;;;;;;;;;22.56;48.95;101576.09;4951042;28;4106;-72
2023/07/18 02:34:10;;;;;;;;;;;;;;;22.56;48.79;101581.09;4955042;28;4250;-72
2023/07/18 02:36:36;;;;;;;;;;;;;;;22.54;48.83;101578.88;4950879;28;4249;-72
2023/07/18 02:39:06;;;;;;;;;;;;;;;22.53;48.98;101593.94;4954883;28;4273;-72
2023/07/18 02:41:33;;;;;;;;;;;;;;;22.53;48.80;101583.13;4953841;28;4162;-71
2023/07/18 02:44:00;;;;;;;;;;;;;;;22.52;48.91;101592.47;4973503;28;4135;-70
2023/07/18 02:46:26;;;;;;;;;;;;;;;22.53;49.17;101591.06;4951721;28;4161;-71
2023/07/18 02:48:53;;;;;;;;;;;;;;;22.52;48.85;101587.44;4970004;28;4169;-71
2023/07/18 02:51:19;;;;;;;;;;;;;;;22.52;48.96;101586.69;4954815;28;4209;-71
2023/07/18 02:53:49;;;;;;;;;;;;;;;22.50;49.10;101587.34;4956304;28;3960;-71
2023/07/18 02:56:15;;;;;;;;;;;;;;;22.50;48.91;101584.44;4967261;28;4165;-71
2023/07/18 02:58:42;;;;;;;;;;;;;;;22.48;49.01;101586.50;4954210;28;4142;-71
2023/07/18 03:01:08;;;;;;;;;;;;;;;22.47;49.33;101594.41;4954516;28;4110;-72
2023/07/18 03:03:38;;;;;;;;;;;;;;;22.47;49.46;101602.28;4963094;28;5306;-71
2023/07/18 03:06:04;;;;;;;;;;;;;;;22.46;49.29;101598.66;4953459;28;4049;-72
2023/07/18 03:08:34;;;;;;;;;;;;;;;22.46;49.32;101595.03;4966030;28;4376;-71
2023/07/18 03:11:00;;;;;;;;;;;;;;;22.45;49.43;101599.31;4969190;28;4995;-72
2023/07/18 03:13:27;;;;;;;;;;;;;;;22.42;49.34;101589.81;4968787;28;4216;-72
2023/07/18 03:15:55;;;;;;;;;;;;;;;22.42;49.36;101589.81;4984314;28;4220;-71
2023/07/18 03:18:21;;;;;;;;;;;;;;;22.39;49.65;101599.75;4973291;28;4150;-71
2023/07/18 03:20:48;;;;;;;;;;;;;;;22.41;49.33;101587.59;4986437;28;3938;-72
2023/07/18 03:23:14;;;;;;;;;;;;;;;22.42;49.58;101600.59;4984365;28;4169;-71
2023/07/18 03:25:41;;;;;;;;;;;;;;;22.38;49.45;101606.94;4970548;28;4197;-72
2023/07/18 03:28:08;;;;;;;;;;;;;;;22.40;49.67;101606.28;4974764;28;3921;-71
2023/07/18 03:30:34;;;;;;;;;;;;;;;22.39;49.75;101617.06;4974296;28;4126;-71
2023/07/18 03:33:03;;;;;;;;;;;;;;;22.39;49.55;101614.19;4971181;28;4042;-72
2023/07/18 03:35:29;;;;;;;;;;;;;;;22.39;49.61;101611.31;4972672;28;4669;-72
2023/07/18 03:37:57;;;;;;;;;;;;;;;22.38;49.84;101609.81;4986397;28;3991;-72
2023/07/18 03:40:23;;;;;;;;;;;;;;;22.37;49.82;101602.53;4973345;28;4366;-71
2023/07/18 03:42:49;;;;;;;;;;;;;;;22.37;50.16;101599.66;4990204;28;4204;-72
2023/07/18 03:45:16;;;;;;;;;;;;;;;22.39;49.97;101596.88;4973659;28;4038;-72
2023/07/18 03:47:43;;;;;;;;;;;;;;;22.37;49.86;101599.66;4970079;28;4052;-71
2023/07/18 03:50:10;;;;;;;;;;;;;;;22.38;49.71;101595.41;4972136;28;4163;-71
2023/07/18 03:52:36;;;;;;;;;;;;;;;22.36;50.12;101601.06;4973735;28;4257;-71
2023/07/18 03:55:03;;;;;;;;;;;;;;;22.34;50.14;101601.69;4974872;28;4175;-72
2023/07/18 03:57:30;;;;;;;;;;;;;;;22.36;49.83;101603.94;4972486;28;4156;-71
2023/07/18 03:59:56;;;;;;;;;;;;;;;22.36;50.10;101603.94;4975935;28;4179;-71
2023/07/18 04:02:23;;;;;;;;;;;;;;;22.33;50.11;101602.34;4972351;28;4193;-70
2023/07/18 04:04:49;;;;;;;;;;;;;;;22.33;49.92;101599.44;4974174;28;3974;-71
2023/07/18 04:07:16;;;;;;;;;;;;;;;22.30;50.37;101606.53;4973549;28;4987;-72
2023/07/18 04:09:42;;;;;;;;;;;;;;;22.30;50.28;101600.75;4975469;28;4162;-71
2023/07/18 04:12:09;;;;;;;;;;;;;;;22.31;49.96;101602.22;4972707;28;4186;-71
2023/07/18 04:14:35;;;;;;;;;;;;;;;22.30;49.94;101598.59;4973374;28;4085;-72
2023/07/18 04:17:02;;;;;;;;;;;;;;;22.29;50.38;101605.03;4972003;28;4080;-71
2023/07/18 04:19:29;;;;;;;;;;;;;;;22.29;50.34;101602.16;4970997;28;4170;-71
2023/07/18 04:21:56;;;;;;;;;;;;;;;22.27;50.10;101602.03;4975603;28;4176;-71
2023/07/18 04:24:22;;;;;;;;;;;;;;;22.27;50.32;101607.81;4972145;28;6433;-72
2023/07/18 04:26:49;;;;;;;;;;;;;;;22.28;50.50;101595.63;4973763;28;4176;-72
2023/07/18 04:29:15;;;;;;;;;;;;;;;22.30;50.17;101600.75;4972578;28;4149;-72
2023/07/18 04:31:41;;;;;;;;;;;;;;;22.29;50.21;101599.28;4966067;28;4115;-72
2023/07/18 04:34:08;;;;;;;;;;;;;;;22.28;50.33;101597.75;4972006;28;4432;-72
2023/07/18 04:36:35;;;;;;;;;;;;;;;22.30;50.26;101601.50;4973174;28;4084;-71
2023/07/18 04:39:01;;;;;;;;;;;;;;;22.29;50.37;101605.03;4968658;28;4050;-71
2023/07/18 04:41:27;;;;;;;;;;;;;;;22.28;50.37;101598.50;4972495;28;4320;-71
2023/07/18 04:44:06;;;;;;;;;;;;;;;22.29;50.36;101602.16;4971661;28;4248;-72
2023/07/18 04:46:33;;;;;;;;;;;;;;;22.30;50.36;101601.50;4970890;28;4115;-72
2023/07/18 04:48:59;;;;;;;;;;;;;;;22.29;50.46;101599.28;4970058;28;4283;-71
2023/07/18 04:51:26;;;;;;;;;;;;;;;22.30;50.60;101603.63;4962417;28;4144;-71
2023/07/18 04:53:52;;;;;;;;;;;;;;;22.30;50.48;101606.53;4964739;28;4004;-73
2023/07/18 04:56:19;;;;;;;;;;;;;;;22.29;50.92;101616.59;4965535;28;4351;-72
2023/07/18 04:58:45;;;;;;;;;;;;;;;22.22;51.26;101611.88;4967846;28;4169;-74
2023/07/18 05:01:12;;;;;;;;;;;;;;;21.72;52.66;101597.81;4964301;28;4216;-75
2023/07/18 05:03:38;;;;;;;;;;;;;;;21.47;53.03;101618.09;4970056;28;4183;-71
2023/07/18 05:06:22;;;;;;;;;;;;;;;21.59;53.11;101612.97;4969427;28;4064;-71
2023/07/18 05:08:48;;;;;;;;;;;;;;;21.65;53.18;101615.44;4973953;28;3985;-71
2023/07/18 05:11:15;;;;;;;;;;;;;;;21.74;52.76;101612.34;4987346;28;4088;-71
2023/07/18 05:13:41;;;;;;;;;;;;;;;21.63;52.96;101621.81;4973327;28;4203;-71
2023/07/18 05:16:07;;;;;;;;;;;;;;;21.32;53.90;101620.13;4973021;28;4251;-71
2023/07/18 05:18:34;;;;;;;;;;;;;;;21.65;53.26;101624.81;4971690;28;4145;-71
2023/07/18 05:21:00;;;;;;;;;;;;;;;21.43;53.51;101612.09;4968506;28;4066;-71
2023/07/18 05:23:27;;;;;;;;;;;;;;;21.44;53.80;101625.88;4970883;28;4496;-71
2023/07/18 05:25:56;;;;;;;;;;;;;;;21.45;53.87;101615.09;4970632;28;4044;-72
2023/07/18 05:28:22;;;;;;;;;;;;;;;21.31;53.99;101617.91;4969935;28;4351;-71
2023/07/18 05:30:49;;;;;;;;;;;;;;;21.33;53.95;101621.66;4971529;28;4410;-71
2023/07/18 05:33:15;;;;;;;;;;;;;;;21.34;53.93;101617.38;4973537;28;4016;-71
2023/07/18 05:35:41;;;;;;;;;;;;;;;21.26;54.50;101611.19;4972610;28;4110;-72
2023/07/18 05:38:08;;;;;;;;;;;;;;;21.16;55.13;101616.38;4971138;28;4239;-72
2023/07/18 05:40:34;;;;;;;;;;;;;;;21.05;55.36;101611.44;4971387;28;4036;-72
2023/07/18 05:43:01;;;;;;;;;;;;;;;21.09;55.15;101603.03;4971333;28;4286;-72
2023/07/18 05:45:27;;;;;;;;;;;;;;;21.00;55.27;101604.72;4971444;28;4360;-72
2023/07/18 05:47:54;;;;;;;;;;;;;;;20.98;55.71;101610.38;4972730;28;4120;-71
2023/07/18 05:50:20;;;;;;;;;;;;;;;20.95;55.62;101610.88;4972267;28;4010;-71
2023/07/18 05:52:48;;;;;;;;;;;;;;;21.10;55.27;101604.53;4972490;28;4183;-71
2023/07/18 05:55:14;;;;;;;;;;;;;;;20.98;55.90;101609.59;4970884;28;5198;-72
2023/07/18 05:57:41;;;;;;;;;;;;;;;21.11;55.50;101611.78;4970340;28;4106;-71
2023/07/18 06:00:10;;;;;;;;;;;;;;;21.03;56.06;101614.97;4971670;28;4020;-71
2023/07/18 06:02:39;;;;;;;;;;;;;;;21.04;56.05;101612.84;4971118;28;4222;-71
2023/07/18 06:05:07;;;;;;;;;;;;;;;21.06;55.73;101610.81;4971769;28;4046;-71
2023/07/18 06:07:33;;;;;;;;;;;;;;;21.05;56.25;101617.19;4970032;28;4150;-71
2023/07/18 06:10:00;;;;;;;;;;;;;;;20.97;56.48;101616.75;4969083;28;4013;-72
2023/07/18 06:12:26;;;;;;;;;;;;;;;21.05;56.42;101617.97;4969832;28;4048;-71
2023/07/18 06:14:55;;;;;;;;;;;;;;;21.34;55.45;101620.25;4971007;28;4141;-71
2023/07/18 06:17:21;;;;;;;;;;;;;;;21.32;55.58;101620.13;4969902;28;4063;-71
2023/07/18 06:19:47;;;;;;;;;;;;;;;21.15;56.26;101617.78;4969972;28;4271;-72
2023/07/18 06:22:14;;;;;;;;;;;;;;;19.97;59.77;101612.44;4984232;28;4451;-72
2023/07/18 06:24:41;;;;;;;;;;;;;;;20.40;58.93;101620.00;4969267;28;4171;-74
2023/07/18 06:27:07;;;;;;;;;;;;;;;20.33;58.60;101618.88;4969201;28;4207;-72
2023/07/18 06:29:34;;;;;;;;;;;;;;;20.56;58.36;101623.06;4968049;28;4185;-71
2023/07/18 06:32:02;;;;;;;;;;;;;;;20.79;57.47;101628.00;4971151;28;4425;-72
2023/07/18 06:34:33;;;;;;;;;;;;;;;20.96;57.12;101624.66;4971147;28;4321;-74
2023/07/18 06:37:02;;;;;;;;;;;;;;;21.13;56.55;101629.19;4972892;28;4100;-74
2023/07/18 06:39:29;;;;;;;;;;;;;;;21.38;55.61;101630.53;4970228;28;4330;-74
2023/07/18 06:41:56;;;;;;;;;;;;;;;21.54;55.06;101622.78;4971999;28;4085;-74
2023/07/18 06:44:22;;;;;;;;;;;;;;;21.63;54.96;101618.94;4983162;28;3966;-74
2023/07/18 06:46:49;;;;;;;;;;;;;;;21.71;54.14;101619.34;4971754;28;4247;-74
2023/07/18 06:49:18;;;;;;;;;;;;;;;21.77;54.17;101626.84;4970305;28;4067;-74
2023/07/18 06:51:44;;;;;;;;;;;;;;;21.80;54.02;101623.41;4962599;28;4081;-74
2023/07/18 06:54:11;;;;;;;;;;;;;;;21.86;53.74;101625.91;4970394;28;4194;-74
2023/07/18 06:56:39;;;;;;;;;;;;;;;21.88;53.62;101626.00;4974715;28;4179;-74
2023/07/18 06:59:06;;;;;;;;;;;;;;;21.92;53.41;101632.72;4975807;28;3928;-74
2023/07/18 07:01:33;;;;;;;;;;;;;;;21.93;53.52;101627.69;4974184;28;4098;-74
2023/07/18 07:04:01;;;;;;;;;;;;;;;21.95;53.13;101628.56;4975634;28;4482;-74
2023/07/18 07:06:27;;;;;;;;;;;;;;;21.99;53.05;101630.91;4970479;28;4114;-71
2023/07/18 07:08:53;;;;;;;;;;;;;;;21.91;53.14;101624.72;4975427;28;3899;-72
2023/07/18 07:11:20;;;;;;;;;;;;;;;21.85;53.94;101628.03;4974685;28;4113;-72
2023/07/18 07:13:47;;;;;;;;;;;;;;;21.89;53.81;101627.50;4975271;28;4410;-72
2023/07/18 07:16:13;;;;;;;;;;;;;;;21.96;53.50;101643.72;4974752;28;4183;-73
2023/07/18 07:18:40;;;;;;;;;;;;;;;22.00;53.51;101635.28;4972407;28;4412;-72
2023/07/18 07:21:06;;;;;;;;;;;;;;;22.04;53.24;101626.84;4975365;28;4129;-72
2023/07/18 07:23:32;;;;;;;;;;;;;;;22.07;52.86;101637.09;4975049;28;4254;-72
2023/07/18 07:26:00;;;;;;;;;;;;;;;22.09;53.12;101628.53;4975324;28;4157;-72
2023/07/18 07:28:26;;;;;;;;;;;;;;;22.12;52.82;101618.59;4974417;28;3984;-73
2023/07/18 07:30:52;;;;;;;;;;;;;;;22.12;52.77;101614.97;4971629;28;4234;-74
2023/07/18 07:33:19;;;;;;;;;;;;;;;22.14;52.90;101627.34;4972826;28;4386;-67
2023/07/18 07:35:45;;;;;;;;;;;;;;;21.76;53.55;101620.31;4974845;28;4257;-69
2023/07/18 07:38:12;;;;;;;;;;;;;;;21.64;53.94;101619.69;4974707;28;3979;-66
2023/07/18 07:40:38;;;;;;;;;;;;;;;21.57;54.87;101627.25;4971387;28;4260;-66
2023/07/18 07:43:05;;;;;;;;;;;;;;;21.39;55.64;101629.13;4974788;28;4543;-64
2023/07/18 07:45:31;;;;;;;;;;;;;;;21.53;54.73;101622.03;4972199;28;4068;-64
2023/07/18 07:47:57;;;;;;;;;;;;;;;21.48;54.75;101619.56;4971738;28;4325;-64
2023/07/18 07:50:24;;;;;;;;;;;;;;;21.44;55.24;101616.47;4972707;28;4373;-64
2023/07/18 07:52:50;;;;;;;;;;;;;;;21.58;55.24;101610.72;4970976;28;4050;-64
2023/07/18 07:55:17;;;;;;;;;;;;;;;21.72;54.63;101618.00;4987968;28;4188;-64
2023/07/18 07:57:43;;;;;;;;;;;;;;;21.81;54.26;101621.31;4971306;28;6571;-64
2023/07/18 08:00:10;;;;;;;;;;;;;;;21.86;54.00;101625.91;4973273;28;4075;-64
2023/07/18 08:02:37;;;;;;;;;;;;;;;21.92;53.46;101617.53;4970511;28;4282;-63
2023/07/18 08:05:04;;;;;;;;;;;;;;;21.98;53.29;101612.09;4970800;28;4222;-64
2023/07/18 08:07:30;;;;;;;;;;;;;;;22.03;53.29;101605.16;4973179;28;5717;-64
2023/07/18 08:09:57;;;;;;;;;;;;;;;22.03;52.82;101599.38;4972330;28;4122;-64
2023/07/18 08:12:24;;;;;;;;;;;;;;;22.07;52.73;101599.59;4971254;28;4200;-64
2023/07/18 08:14:50;;;;;;;;;;;;;;;22.11;52.63;101596.19;4971598;28;4122;-64
2023/07/18 08:17:17;;;;;;;;;;;;;;;22.16;52.33;101592.84;4970581;28;4125;-64
2023/07/18 08:19:44;;;;;;;;;;;;;;;22.08;51.76;101600.31;4962301;28;5559;-64
2023/07/18 08:22:10;;;;;;;;;;;;;;;22.14;51.73;101610.03;4971443;28;4279;-64
2023/07/18 08:24:37;;;;;;;;;;;;;;;22.17;51.22;101600.13;4968748;28;4784;-64
2023/07/18 08:27:04;;;;;;;;;;;;;;;21.96;51.78;101598.31;4971347;28;4102;-64
2023/07/18 08:29:32;;;;;;;;;;;;;;;22.00;51.68;101594.91;4969724;28;4159;-64
2023/07/18 08:31:58;;;;;;;;;;;;;;;22.00;52.32;101597.78;4971148;28;4254;-65
2023/07/18 08:34:25;;;;;;;;;;;;;;;22.09;51.98;101587.41;4968862;28;4148;-64
2023/07/18 08:36:51;;;;;;;;;;;;;;;22.16;51.64;101586.34;4969458;28;4220;-64
2023/07/18 08:39:18;;;;;;;;;;;;;;;21.90;50.48;101588.63;4970861;28;4206;-63
2023/07/18 08:41:44;;;;;;;;;;;;;;;22.03;50.42;101590.72;4970069;28;4311;-63
2023/07/18 08:44:15;;;;;;;;;;;;;;;22.17;50.79;101582.81;4969496;28;4004;-63
2023/07/18 08:46:42;;;;;;;;;;;;;;;22.23;50.28;101567.22;4971362;28;4278;-63
2023/07/18 08:49:10;;;;;;;;;;;;;;;22.18;49.93;101572.00;4983776;28;4131;-63
2023/07/18 08:51:37;;;;;;;;;;;;;;;22.22;49.78;101577.25;4969365;28;4086;-65
2023/07/18 08:54:03;;;;;;;;;;;;;;;22.09;50.47;101578.75;4970141;28;4027;-66
2023/07/18 08:56:29;;;;;;;;;;;;;;;22.07;50.33;101575.78;4968844;28;4366;-66
2023/07/18 08:58:57;;;;;;;;;;;;;;;22.01;50.28;101570.44;4970801;28;4102;-65
2023/07/18 09:01:23;;;;;;;;;;;;;;;22.08;50.89;101566.50;4973999;28;4222;-65
2023/07/18 09:03:51;;;;;;;;;;;;;;;22.17;50.52;101556.06;4971751;28;4152;-65
2023/07/18 09:06:21;;;;;;;;;;;;;;;22.16;50.24;101558.22;4971525;28;3995;-65
2023/07/18 09:08:47;;;;;;;;;;;;;;;22.09;49.55;101550.66;4964043;28;4063;-64
2023/07/18 09:11:16;;;;;;;;;;;;;;;22.09;49.47;101552.81;4969500;28;5551;-62
2023/07/18 09:13:44;;;;;;;;;;;;;;;22.04;49.96;101557.63;4959703;28;3992;-65
2023/07/18 09:16:11;;;;;;;;;;;;;;;21.70;50.25;101542.94;4971482;28;4142;-65
2023/07/18 09:18:38;;;;;;;;;;;;;;;21.91;50.17;101541.09;4970614;28;4079;-64
2023/07/18 09:21:11;;;;;;;;;;;;;;;22.05;49.62;101536.03;4972092;28;4197;-64
2023/07/18 09:23:40;;;;;;;;;;;;;;;22.17;49.38;101541.66;4969403;28;4126;-64
2023/07/18 09:26:07;;;;;;;;;;;;;;;22.26;49.32;101537.81;4970559;28;4238;-66
2023/07/18 09:28:34;;;;;;;;;;;;;;;22.34;48.66;101538.22;4969561;28;4043;-65
2023/07/18 09:31:01;;;;;;;;;;;;;;;22.25;48.51;101542.09;4972763;28;4206;-65
2023/07/18 09:33:27;;;;;;;;;;;;;;;22.34;48.45;101544.00;4971390;28;4333;-64
2023/07/18 09:35:58;;;;;;;;;;;;;;;22.31;48.04;101538.75;4972572;28;4173;-66
2023/07/18 09:38:25;;;;;;;;;;;;;;;22.35;47.23;101527.41;4972443;28;4154;-66
2023/07/18 09:40:52;;;;;;;;;;;;;;;22.28;47.45;101529.25;4977714;28;4549;-66
2023/07/18 09:43:19;;;;;;;;;;;;;;;22.28;47.48;101534.28;4971413;28;4215;-66
2023/07/18 09:45:45;;;;;;;;;;;;;;;22.29;47.38;101527.88;4971615;28;4234;-66
2023/07/18 09:48:12;;;;;;;;;;;;;;;22.37;47.37;101524.63;4976967;28;4011;-66
2023/07/18 09:50:40;;;;;;;;;;;;;;;22.42;48.03;101514.78;4971503;28;4232;-66
2023/07/18 09:53:07;;;;;;;;;;;;;;;22.48;48.14;101523.72;4976109;28;4081;-65
2023/07/18 09:55:34;;;;;;;;;;;;;;;22.46;47.30;101514.97;4970931;28;3995;-65
2023/07/18 09:58:00;;;;;;;;;;;;;;;22.37;46.90;101513.09;4976637;28;4391;-65
2023/07/18 10:00:27;;;;;;;;;;;;;;;22.36;46.71;101523.16;4971253;28;4150;-64
2023/07/18 10:02:54;;;;;;;;;;;;;;;22.47;46.73;101513.59;4976216;28;4152;-65
2023/07/18 10:05:22;;;;;;;;;;;;;;;22.48;46.73;101515.06;4984898;28;4392;-65
2023/07/18 10:07:48;;;;;;;;;;;;;;;22.53;47.29;101507.34;4976456;28;4272;-65
2023/07/18 10:10:15;;;;;;;;;;;;;;;22.54;47.17;101503.84;4976410;28;3915;-65
2023/07/18 10:12:53;;;;;;;;;;;;;;;22.53;47.75;101499.44;4971945;28;4485;-65
2023/07/18 10:15:20;;;;;;;;;;;;;;;22.48;47.02;101500.66;4970986;28;4551;-65
2023/07/18 10:17:52;;;;;;;;;;;;;;;22.51;46.70;101492.81;4971992;28;4169;-65
2023/07/18 10:20:22;;;;;;;;;;;;;;;22.54;44.83;101495.16;4978161;28;4136;-65
2023/07/18 10:22:48;;;;;;;;;;;;;;;22.55;45.24;101493.75;4970559;28;4136;-65
2023/07/18 10:25:18;;;;;;;;;;;;;;;22.61;45.73;101489.66;4971370;28;4249;-65
2023/07/18 10:27:45;;;;;;;;;;;;;;;22.59;46.46;101488.19;4965478;28;3952;-65
2023/07/18 10:30:18;;;;;;;;;;;;;;;22.62;46.39;101480.38;4971633;28;4198;-66
2023/07/18 10:32:54;;;;;;;;;;;;;;;22.61;45.63;101475.22;4969819;28;4476;-65
2023/07/18 10:35:21;;;;;;;;;;;;;;;22.64;45.24;101473.94;4972065;28;4615;-65
2023/07/18 10:37:51;;;;;;;;;;;;;;;22.66;45.58;101471.16;4970892;28;4008;-65
2023/07/18 10:40:30;;;;;;;;;;;;;;;22.62;44.98;101474.59;4971709;28;4029;-65
2023/07/18 10:42:57;;;;;;;;;;;;;;;22.59;43.76;101470.88;4963096;28;4088;-65
2023/07/18 10:45:23;;;;;;;;;;;;;;;22.61;43.94;101461.56;4970849;28;4437;-65
2023/07/18 10:47:50;;;;;;;;;;;;;;;22.69;44.07;101466.97;4971971;28;4168;-65
2023/07/18 10:50:17;;;;;;;;;;;;;;;22.69;45.33;101461.94;4975847;28;4524;-65
2023/07/18 10:52:46;;;;;;;;;;;;;;;22.66;45.13;101457.47;4971737;28;3990;-65
2023/07/18 10:55:15;;;;;;;;;;;;;;;22.68;45.17;101448.16;4971555;28;3996;-65
2023/07/18 10:57:41;;;;;;;;;;;;;;;22.69;43.57;101446.75;4967393;28;4082;-65
2023/07/18 11:00:08;;;;;;;;;;;;;;;22.71;44.26;101441.81;4971541;28;4532;-70
2023/07/18 11:02:35;;;;;;;;;;;;;;;22.75;44.49;101438.38;4970032;28;4022;-67
2023/07/18 11:05:05;;;;;;;;;;;;;;;22.73;44.85;101432.50;4971420;28;4096;-67
2023/07/18 11:07:33;;;;;;;;;;;;;;;22.66;44.75;101433.63;4968525;28;4133;-66
2023/07/18 11:09:59;;;;;;;;;;;;;;;22.72;45.14;101431.00;4971640;28;4181;-65
2023/07/18 11:12:26;;;;;;;;;;;;;;;22.71;45.16;101429.53;4971595;28;4178;-66
2023/07/18 11:14:52;;;;;;;;;;;;;;;22.69;44.94;101426.53;4987337;28;4162;-67
2023/07/18 11:17:19;;;;;;;;;;;;;;;22.69;45.39;101421.50;4970075;28;4251;-66
2023/07/18 11:19:46;;;;;;;;;;;;;;;22.68;45.38;101416.41;4971344;28;4111;-67
2023/07/18 11:22:13;;;;;;;;;;;;;;;22.68;45.51;101404.84;4973853;28;4463;-66
2023/07/18 11:24:40;;;;;;;;;;;;;;;22.68;45.65;101401.97;4983490;28;4423;-67
2023/07/18 11:27:26;;;;;;;;;;;;;;;22.67;45.86;101395.44;4970282;28;4020;-66
2023/07/18 11:29:56;;;;;;;;;;;;;;;22.68;45.87;101396.19;4972249;28;4076;-66
2023/07/18 11:32:35;;;;;;;;;;;;;;;22.68;46.30;101384.66;4971490;28;4309;-66
2023/07/18 11:35:02;;;;;;;;;;;;;;;22.68;46.33;101384.66;4971880;28;3997;-66
2023/07/18 11:37:29;;;;;;;;;;;;;;;22.69;46.25;101386.13;4973588;28;4646;-66
2023/07/18 11:39:59;;;;;;;;;;;;;;;22.69;46.64;101383.97;4970069;28;4098;-66
2023/07/18 11:42:41;;;;;;;;;;;;;;;22.69;46.65;101383.97;4974962;28;4054;-66
2023/07/18 11:45:08;;;;;;;;;;;;;;;22.71;46.78;101392.00;4976050;28;4187;-66
2023/07/18 11:47:35;;;;;;;;;;;;;;;22.71;46.48;101384.06;4972113;28;4309;-66
2023/07/18 11:50:01;;;;;;;;;;;;;;;22.72;46.81;101387.69;4975873;28;4204;-66
2023/07/18 11:52:28;;;;;;;;;;;;;;;22.72;46.66;101376.91;4973510;28;4159;-67
2023/07/18 11:54:54;;;;;;;;;;;;;;;22.73;46.69;101386.31;4973140;28;4015;-66
2023/07/18 11:57:21;;;;;;;;;;;;;;;22.74;46.67;101382.03;4974922;28;5063;-66
2023/07/18 11:59:47;;;;;;;;;;;;;;;22.74;47.15;101384.91;4974820;28;4329;-66
2023/07/18 12:02:14;;;;;;;;;;;;;;;22.74;47.07;101379.88;4975784;28;4020;-66
2023/07/18 12:04:40;;;;;;;;;;;;;;;22.75;47.13;101371.97;4970668;28;4145;-66
2023/07/18 12:07:07;;;;;;;;;;;;;;;22.76;47.13;101373.47;4970985;28;4160;-66
2023/07/18 12:09:33;;;;;;;;;;;;;;;22.76;46.91;101373.47;4968214;28;4247;-66
2023/07/18 12:12:00;;;;;;;;;;;;;;;22.75;47.08;101377.75;4970585;28;4202;-73
2023/07/18 12:14:26;;;;;;;;;;;;;;;23.02;47.02;101370.25;4960023;28;4926;-71
2023/07/18 12:16:53;;;;;;;;;;;;;;;23.12;47.10;101368.56;4969748;28;4203;-69
2023/07/18 12:19:21;;;;;;;;;;;;;;;23.12;46.98;101374.34;4971088;28;4078;-70
2023/07/18 12:21:48;;;;;;;;;;;;;;;23.13;46.81;101369.31;4970937;28;4346;-69
2023/07/18 12:24:15;;;;;;;;;;;;;;;23.12;47.06;101362.78;4971210;28;3953;-70
2023/07/18 12:26:41;;;;;;;;;;;;;;;23.15;47.18;101372.28;4969944;28;4141;-69
2023/07/18 12:29:07;;;;;;;;;;;;;;;23.16;47.14;101359.34;4971396;28;4176;-71
2023/07/18 12:31:34;;;;;;;;;;;;;;;23.28;46.80;101362.00;4967088;28;4372;-73
2023/07/18 12:34:00;;;;;;;;;;;;;;;23.36;46.92;101357.28;4969273;28;3948;-72
2023/07/18 12:36:27;;;;;;;;;;;;;;;23.40;46.69;101357.47;4971419;28;4360;-73
2023/07/18 12:38:53;;;;;;;;;;;;;;;23.33;46.96;101352.84;4972291;28;4037;-68
2023/07/18 12:41:19;;;;;;;;;;;;;;;23.30;47.19;101359.94;4971215;28;4158;-70
2023/07/18 12:43:46;;;;;;;;;;;;;;;23.30;47.28;101354.16;4972919;28;4236;-69
2023/07/18 12:46:13;;;;;;;;;;;;;;;23.32;47.37;101351.34;4972019;28;4239;-69
2023/07/18 12:48:39;;;;;;;;;;;;;;;23.30;46.98;101350.53;4970341;28;4209;-67